Time;durP1;ratioP1;P1;durP2;ratioP2;P2;SDS_P1;SDS_P2;PMS_P1;PMS_P2;Temp;Humidity;BMP_temperature;BMP_pressure;BME280_temperature;BME280_humidity;BME280_pressure;Samples;Min_cycle;Max_cycle;Signal;HPM_P1;HPM_P2
2022/10/14 00:02:15;;;;;;;20.70;17.27;;;15.40;99.90;;;;;;5114140;28;20208;-82
2022/10/14 00:04:41;;;;;;;20.37;17.87;;;15.40;99.90;;;;;;5114156;28;20218;-82
2022/10/14 00:07:10;;;;;;;20.90;18.63;;;15.40;99.90;;;;;;5114068;28;20213;-83
2022/10/14 00:09:38;;;;;;;20.70;18.50;;;15.50;99.90;;;;;;5114347;28;20238;-83
2022/10/14 00:12:05;;;;;;;21.43;18.10;;;15.60;99.90;;;;;;5113737;28;20240;-84
2022/10/14 00:14:32;;;;;;;21.47;18.53;;;15.50;99.90;;;;;;5113872;28;20555;-83
2022/10/14 00:17:00;;;;;;;24.83;22.27;;;15.50;99.90;;;;;;5113647;28;20792;-84
2022/10/14 00:19:27;;;;;;;20.90;18.53;;;15.60;99.90;;;;;;5114282;28;20204;-81
2022/10/14 00:21:53;;;;;;;21.27;18.67;;;15.60;99.90;;;;;;5114098;28;20233;-84
2022/10/14 00:24:21;;;;;;;19.93;17.83;;;15.50;99.90;;;;;;5114204;28;20192;-82
2022/10/14 00:26:48;;;;;;;22.33;17.97;;;15.50;99.90;;;;;;5113801;28;20196;-84
2022/10/14 00:29:18;;;;;;;21.00;18.73;;;15.50;99.90;;;;;;5113842;28;20209;-83
2022/10/14 00:31:45;;;;;;;21.13;18.13;;;15.50;99.90;;;;;;5114028;28;20717;-83
2022/10/14 00:34:14;;;;;;;23.30;18.40;;;15.50;99.90;;;;;;5113638;28;20203;-83
2022/10/14 00:36:42;;;;;;;19.87;17.77;;;15.60;99.90;;;;;;5113796;28;20210;-83
2022/10/14 00:39:09;;;;;;;19.97;17.97;;;15.50;99.90;;;;;;5113826;28;20293;-84
2022/10/14 00:41:37;;;;;;;21.20;17.17;;;15.40;99.90;;;;;;5113325;28;20233;-84
2022/10/14 00:44:06;;;;;;;22.13;18.53;;;15.40;99.90;;;;;;5113742;28;20567;-84
2022/10/14 00:46:36;;;;;;;20.40;17.13;;;15.50;99.90;;;;;;5113779;28;20189;-83
2022/10/14 00:49:13;;;;;;;20.90;18.40;;;15.40;99.90;;;;;;5113580;28;20642;-84
2022/10/14 00:51:42;;;;;;;19.03;16.97;;;15.40;99.90;;;;;;5113711;28;20567;-83
2022/10/14 00:54:10;;;;;;;18.93;17.03;;;15.30;99.90;;;;;;5113520;28;20692;-83
2022/10/14 00:56:38;;;;;;;19.57;17.43;;;15.30;99.90;;;;;;5113336;28;20201;-82
2022/10/14 00:59:06;;;;;;;19.73;17.60;;;15.40;99.90;;;;;;5113890;28;20192;-83
2022/10/14 01:01:34;;;;;;;22.63;19.00;;;15.40;99.90;;;;;;5113533;28;20238;-83
2022/10/14 01:04:01;;;;;;;20.83;17.50;;;15.30;99.90;;;;;;5112946;28;20218;-83
2022/10/14 01:06:47;;;;;;;19.57;17.47;;;15.40;99.90;;;;;;5113308;28;20207;-83
2022/10/14 01:09:24;;;;;;;18.47;16.47;;;15.20;99.90;;;;;;5111736;28;20543;-84
2022/10/14 01:12:00;;;;;;;22.10;17.50;;;15.30;99.90;;;;;;5113536;28;20215;-84
2022/10/14 01:14:35;;;;;;;19.80;17.70;;;15.30;99.90;;;;;;5113517;28;20203;-81
2022/10/14 01:17:09;;;;;;;21.93;17.93;;;15.40;99.90;;;;;;5113459;28;20209;-81
2022/10/14 01:19:52;;;;;;;20.57;17.63;;;15.40;99.90;;;;;;5113467;28;20199;-81
2022/10/14 01:22:26;;;;;;;22.20;17.53;;;15.30;99.90;;;;;;5113709;28;20196;-82
2022/10/14 01:25:08;;;;;;;21.57;18.07;;;15.20;99.90;;;;;;5112828;28;20203;-81
2022/10/14 01:28:08;;;;;;;20.93;17.57;;;15.20;99.90;;;;;;5113088;28;20570;-84
2022/10/14 01:30:43;;;;;;;19.33;16.87;;;15.30;99.90;;;;;;5113066;28;20205;-83
2022/10/14 01:33:14;;;;;;;19.23;16.50;;;15.30;99.90;;;;;;5113235;28;20209;-83
2022/10/14 01:35:56;;;;;;;18.47;16.57;;;15.40;99.90;;;;;;5112955;28;20213;-84
2022/10/14 01:38:27;;;;;;;24.50;18.83;;;15.40;99.90;;;;;;5112825;28;20429;-83
2022/10/14 01:41:00;;;;;;;19.80;17.63;;;15.30;99.90;;;;;;5113052;28;20222;-83
2022/10/14 01:43:30;;;;;;;20.60;17.23;;;15.30;99.90;;;;;;5113146;28;20233;-82
2022/10/14 01:46:00;;;;;;;25.47;17.77;;;15.40;99.90;;;;;;5114695;28;20209;-83
2022/10/14 01:48:32;;;;;;;20.90;16.60;;;15.30;99.90;;;;;;5116584;28;20208;-83
2022/10/14 01:51:04;;;;;;;21.37;16.33;;;15.30;99.90;;;;;;5116663;28;20223;-84
2022/10/14 01:53:37;;;;;;;19.97;17.60;;;15.20;99.90;;;;;;5116392;28;20214;-82
2022/10/14 01:56:05;;;;;;;22.33;17.70;;;15.20;99.90;;;;;;5116413;28;20668;-83
2022/10/14 01:58:34;;;;;;;20.97;17.77;;;15.30;99.90;;;;;;5116447;28;20201;-83
2022/10/14 02:01:05;;;;;;;19.33;16.90;;;15.30;99.90;;;;;;5116434;28;20230;-83
2022/10/14 02:03:43;;;;;;;24.30;19.17;;;15.10;99.90;;;;;;5116339;28;20534;-83
2022/10/14 02:06:14;;;;;;;21.67;17.80;;;15.20;99.90;;;;;;5116610;28;20680;-82
2022/10/14 02:08:54;;;;;;;20.70;16.87;;;15.20;99.90;;;;;;5116191;28;20191;-83
2022/10/14 02:11:23;;;;;;;24.00;17.37;;;15.30;99.90;;;;;;5116255;28;20206;-82
2022/10/14 02:14:07;;;;;;;21.57;17.63;;;15.30;99.90;;;;;;5116072;27;20214;-82
2022/10/14 02:16:40;;;;;;;23.00;18.50;;;15.20;99.90;;;;;;5116193;28;20247;-82
2022/10/14 02:19:18;;;;;;;22.10;17.60;;;15.10;99.90;;;;;;5116191;28;20205;-83
2022/10/14 02:21:52;;;;;;;27.45;22.75;;;15.00;99.90;;;;;;5114715;27;20451;-82
2022/10/14 02:24:26;;;;;;;20.60;18.20;;;15.30;99.90;;;;;;5116134;28;20197;-83
2022/10/14 02:26:57;;;;;;;19.27;15.97;;;15.40;99.90;;;;;;5116073;28;20203;-83
2022/10/14 02:29:25;;;;;;;20.63;17.23;;;15.40;99.90;;;;;;5116326;28;20188;-83
2022/10/14 02:31:54;;;;;;;20.30;16.83;;;15.40;99.90;;;;;;5115903;28;20216;-83
2022/10/14 02:34:22;;;;;;;24.80;16.70;;;15.30;99.90;;;;;;5115986;28;20215;-84
2022/10/14 02:36:50;;;;;;;18.53;16.07;;;15.40;99.90;;;;;;5115396;28;20214;-84
2022/10/14 02:39:21;;;;;;;19.70;16.00;;;15.40;99.90;;;;;;5115976;28;20232;-83
2022/10/14 02:41:48;;;;;;;24.77;19.13;;;15.40;99.90;;;;;;5115004;28;20452;-83
2022/10/14 02:44:15;;;;;;;23.20;16.60;;;15.40;99.90;;;;;;5115900;28;20184;-82
2022/10/14 02:46:42;;;;;;;21.43;16.83;;;15.30;99.90;;;;;;5115060;28;20652;-82
2022/10/14 02:49:12;;;;;;;24.13;16.50;;;15.30;99.90;;;;;;5114678;28;20644;-82
2022/10/14 02:51:39;;;;;;;20.93;16.77;;;15.30;99.90;;;;;;5114955;28;20239;-82
2022/10/14 02:54:06;;;;;;;20.27;16.40;;;15.20;99.90;;;;;;5115720;28;20187;-82
2022/10/14 02:56:33;;;;;;;22.67;16.70;;;15.20;99.90;;;;;;5115672;28;20190;-83
2022/10/14 02:59:05;;;;;;;21.50;16.30;;;15.20;99.90;;;;;;5115464;28;20203;-83
2022/10/14 03:01:33;;;;;;;23.23;16.87;;;15.20;99.90;;;;;;5115459;28;20234;-82
2022/10/14 03:04:00;;;;;;;21.43;16.07;;;15.10;99.90;;;;;;5115362;28;20633;-82
2022/10/14 03:06:28;;;;;;;23.13;17.27;;;15.10;99.90;;;;;;5114938;28;20206;-84
2022/10/14 03:08:55;;;;;;;19.40;15.73;;;15.10;99.90;;;;;;5115323;28;20209;-83
2022/10/14 03:11:22;;;;;;;21.10;16.10;;;15.10;99.90;;;;;;5115091;28;20206;-81
2022/10/14 03:13:49;;;;;;;20.00;15.63;;;15.30;99.90;;;;;;5114875;28;20205;-81
2022/10/14 03:16:15;;;;;;;22.97;16.40;;;15.30;99.90;;;;;;5115069;28;20205;-82
2022/10/14 03:18:42;;;;;;;20.63;15.67;;;15.30;99.90;;;;;;5109607;28;20199;-81
2022/10/14 03:21:09;;;;;;;20.07;15.43;;;15.30;99.90;;;;;;5112372;28;20684;-82
2022/10/14 03:23:37;;;;;;;18.80;15.67;;;15.00;99.90;;;;;;5113078;28;20200;-81
2022/10/14 03:26:05;;;;;;;18.47;15.83;;;15.10;99.90;;;;;;5113868;28;20201;-82
2022/10/14 03:28:32;;;;;;;18.30;15.23;;;15.10;99.90;;;;;;5114764;28;20203;-82
2022/10/14 03:30:59;;;;;;;19.80;15.33;;;15.10;99.90;;;;;;5114866;28;20213;-83
2022/10/14 03:33:25;;;;;;;22.47;15.83;;;15.10;99.90;;;;;;5114984;28;20207;-83
2022/10/14 03:35:52;;;;;;;20.77;15.70;;;15.10;99.90;;;;;;5114492;28;20205;-82
2022/10/14 03:38:19;;;;;;;19.53;15.20;;;15.20;99.90;;;;;;5114618;28;20208;-82
2022/10/14 03:40:47;;;;;;;20.27;16.07;;;15.10;99.90;;;;;;5114677;28;20647;-83
2022/10/14 03:43:14;;;;;;;21.53;16.73;;;15.00;99.90;;;;;;5115276;28;20200;-83
2022/10/14 03:45:44;;;;;;;18.75;16.30;;;15.00;99.90;;;;;;5114738;28;20428;-82
2022/10/14 03:48:10;;;;;;;19.50;15.60;;;14.90;99.90;;;;;;5114542;28;20214;-82
2022/10/14 03:50:39;;;;;;;20.60;15.37;;;14.90;99.90;;;;;;5114088;28;20225;-82
2022/10/14 03:53:06;;;;;;;18.67;15.50;;;15.00;99.90;;;;;;5114621;28;20189;-82
2022/10/14 03:55:34;;;;;;;22.67;15.83;;;14.90;99.90;;;;;;5114524;28;20192;-82
2022/10/14 03:58:02;;;;;;;23.90;16.80;;;14.90;99.90;;;;;;5114010;28;20186;-82
2022/10/14 04:00:29;;;;;;;21.40;16.60;;;15.00;99.90;;;;;;5114464;28;20319;-82
2022/10/14 04:02:57;;;;;;;20.77;15.90;;;15.00;99.90;;;;;;5114215;28;20228;-81
2022/10/14 04:05:24;;;;;;;22.73;17.87;;;15.10;99.90;;;;;;5114132;28;20672;-82
2022/10/14 04:07:51;;;;;;;20.60;16.43;;;15.10;99.90;;;;;;5113728;28;20197;-82
2022/10/14 04:10:17;;;;;;;21.33;15.03;;;15.00;99.90;;;;;;5114038;28;20197;-82
2022/10/14 04:12:44;;;;;;;19.93;15.50;;;15.00;99.90;;;;;;5114268;28;20195;-82
2022/10/14 04:15:12;;;;;;;18.93;15.03;;;15.00;99.90;;;;;;5114345;28;20210;-82
2022/10/14 04:17:39;;;;;;;20.27;15.33;;;14.90;99.90;;;;;;5113993;28;20203;-81
2022/10/14 04:20:07;;;;;;;19.27;13.87;;;15.00;99.90;;;;;;5114411;28;20206;-81
2022/10/14 04:22:34;;;;;;;17.73;14.47;;;15.00;99.90;;;;;;5113500;28;20221;-81
2022/10/14 04:25:04;;;;;;;20.87;15.33;;;14.90;99.90;;;;;;5113527;28;20205;-81
2022/10/14 04:27:32;;;;;;;17.13;14.57;;;15.10;99.90;;;;;;5113704;28;20290;-81
2022/10/14 04:29:58;;;;;;;16.63;14.20;;;15.00;99.90;;;;;;5113800;28;20208;-81
2022/10/14 04:32:30;;;;;;;20.80;18.17;;;15.10;99.90;;;;;;5112365;28;20428;-82
2022/10/14 04:34:57;;;;;;;17.40;14.93;;;15.20;99.90;;;;;;5113521;28;20207;-81
2022/10/14 04:37:24;;;;;;;19.20;14.60;;;15.30;99.90;;;;;;5113717;28;20202;-80
2022/10/14 04:39:51;;;;;;;15.87;14.03;;;15.30;99.90;;;;;;5113501;28;20199;-81
2022/10/14 04:42:17;;;;;;;18.13;14.37;;;15.40;99.90;;;;;;5113634;28;20232;-81
2022/10/14 04:44:44;;;;;;;16.20;13.77;;;15.30;99.90;;;;;;5113585;28;20206;-81
2022/10/14 04:47:11;;;;;;;15.93;13.70;;;15.30;99.90;;;;;;5113059;28;20209;-81
2022/10/14 04:49:39;;;;;;;17.57;13.83;;;15.30;99.90;;;;;;5113545;28;20294;-81
2022/10/14 04:52:06;;;;;;;16.60;13.00;;;15.20;99.90;;;;;;5113472;28;20246;-80
2022/10/14 04:54:35;;;;;;;21.05;17.90;;;15.30;99.90;;;;;;5112447;28;20457;-80
2022/10/14 04:57:03;;;;;;;18.50;14.97;;;15.30;99.90;;;;;;5113500;28;20210;-80
2022/10/14 04:59:30;;;;;;;18.13;14.43;;;15.30;99.90;;;;;;5113484;28;20574;-81
2022/10/14 05:01:56;;;;;;;16.80;14.73;;;15.20;99.90;;;;;;5108646;28;20229;-81
2022/10/14 05:04:23;;;;;;;16.50;13.97;;;15.30;99.90;;;;;;5112244;28;20210;-81
2022/10/14 05:06:51;;;;;;;17.67;14.37;;;15.20;99.90;;;;;;5112224;28;20191;-80
2022/10/14 05:09:18;;;;;;;16.43;13.37;;;15.20;99.90;;;;;;5112865;28;20198;-81
2022/10/14 05:11:45;;;;;;;18.53;14.47;;;15.20;99.90;;;;;;5112993;28;20218;-82
2022/10/14 05:14:13;;;;;;;19.60;14.80;;;15.20;99.90;;;;;;5113244;28;20207;-81
2022/10/14 05:16:40;;;;;;;16.33;14.37;;;15.20;99.90;;;;;;5113149;28;20343;-81
2022/10/14 05:19:06;;;;;;;17.40;14.80;;;15.20;99.90;;;;;;5113401;28;20566;-80
2022/10/14 05:21:33;;;;;;;19.83;14.10;;;15.00;99.90;;;;;;5116124;28;20221;-81
2022/10/14 05:24:01;;;;;;;17.20;13.90;;;15.10;99.90;;;;;;5117160;28;20214;-81
2022/10/14 05:26:28;;;;;;;18.07;13.37;;;15.00;99.90;;;;;;5117494;28;20201;-81
2022/10/14 05:28:55;;;;;;;18.13;13.23;;;15.00;99.90;;;;;;5117016;28;20210;-80
2022/10/14 05:31:22;;;;;;;16.67;13.10;;;14.90;99.90;;;;;;5116814;28;20198;-81
2022/10/14 05:33:49;;;;;;;16.80;13.60;;;14.90;99.90;;;;;;5117277;28;20206;-81
2022/10/14 05:36:16;;;;;;;20.27;14.23;;;14.90;99.90;;;;;;5117080;28;20190;-83
2022/10/14 05:38:43;;;;;;;18.67;13.33;;;15.00;99.90;;;;;;5117058;28;20287;-82
2022/10/14 05:41:11;;;;;;;16.00;13.37;;;14.90;99.90;;;;;;5117063;28;20210;-82
2022/10/14 05:43:40;;;;;;;19.27;13.77;;;14.90;99.90;;;;;;5117057;28;20231;-82
2022/10/14 05:46:08;;;;;;;16.07;12.67;;;14.90;99.90;;;;;;5116654;28;20187;-81
2022/10/14 05:48:40;;;;;;;20.90;13.50;;;14.80;99.90;;;;;;5116881;28;20252;-80
2022/10/14 05:51:07;;;;;;;18.77;12.90;;;14.80;99.90;;;;;;5114544;28;20218;-82
2022/10/14 05:53:34;;;;;;;16.43;13.53;;;14.80;99.90;;;;;;5116317;28;20546;-82
2022/10/14 05:56:02;;;;;;;18.47;13.17;;;14.80;99.90;;;;;;5116006;28;20205;-82
2022/10/14 05:58:30;;;;;;;19.50;12.87;;;14.80;99.90;;;;;;5115500;28;20203;-81
2022/10/14 06:00:59;;;;;;;20.53;12.97;;;14.80;99.90;;;;;;5114016;28;20202;-82
2022/10/14 06:03:26;;;;;;;24.07;18.17;;;14.90;99.90;;;;;;5114811;28;20459;-80
2022/10/14 06:05:53;;;;;;;20.07;14.50;;;15.10;99.90;;;;;;5115663;28;20218;-81
2022/10/14 06:08:21;;;;;;;17.57;13.17;;;15.10;99.90;;;;;;5116196;28;20210;-81
2022/10/14 06:10:48;;;;;;;16.20;12.33;;;15.10;99.90;;;;;;5116015;28;20733;-80
2022/10/14 06:13:14;;;;;;;18.17;13.53;;;15.10;99.90;;;;;;5114085;28;20665;-81
2022/10/14 06:15:43;;;;;;;16.97;13.00;;;14.90;99.90;;;;;;5115668;28;20204;-82
2022/10/14 06:18:11;;;;;;;14.80;12.17;;;14.90;99.90;;;;;;5116040;28;20287;-81
2022/10/14 06:20:38;;;;;;;14.27;12.00;;;14.90;99.90;;;;;;5116065;28;20664;-81
2022/10/14 06:23:05;;;;;;;16.03;13.00;;;14.90;99.90;;;;;;5116215;28;20219;-81
2022/10/14 06:25:33;;;;;;;14.20;11.67;;;15.00;99.90;;;;;;5116129;28;20201;-82
2022/10/14 06:28:02;;;;;;;16.00;12.33;;;15.00;99.90;;;;;;5116089;28;20196;-81
2022/10/14 06:30:29;;;;;;;17.23;12.27;;;15.00;99.90;;;;;;5115974;28;20193;-82
2022/10/14 06:32:57;;;;;;;17.80;12.50;;;15.00;99.90;;;;;;5115466;28;20576;-82
2022/10/14 06:35:24;;;;;;;17.83;11.97;;;14.90;99.90;;;;;;5116041;28;20200;-82
2022/10/14 06:37:50;;;;;;;18.33;12.23;;;15.00;99.90;;;;;;5115737;28;20206;-81
2022/10/14 06:40:17;;;;;;;15.77;11.83;;;15.00;99.90;;;;;;5115536;28;20209;-82
2022/10/14 06:42:44;;;;;;;16.17;12.63;;;14.90;99.90;;;;;;5115453;28;20233;-79
2022/10/14 06:45:11;;;;;;;14.80;11.60;;;15.00;99.90;;;;;;5115648;28;20202;-81
2022/10/14 06:47:38;;;;;;;17.47;11.60;;;14.90;99.90;;;;;;5115294;28;20205;-83
2022/10/14 06:50:07;;;;;;;17.17;12.77;;;14.90;99.90;;;;;;5115256;28;20604;-81
2022/10/14 06:52:34;;;;;;;14.50;10.70;;;15.00;99.90;;;;;;5115211;28;20189;-82
2022/10/14 06:55:01;;;;;;;13.37;10.77;;;14.90;99.90;;;;;;5115005;28;20198;-81
2022/10/14 06:57:27;;;;;;;17.53;11.73;;;14.90;99.90;;;;;;5114766;28;20205;-82
2022/10/14 06:59:57;;;;;;;13.77;11.17;;;14.90;99.90;;;;;;5114831;28;20710;-82
2022/10/14 07:02:24;;;;;;;14.97;11.77;;;15.10;99.90;;;;;;5113703;28;20225;-82
2022/10/14 07:04:51;;;;;;;15.50;11.97;;;15.10;99.90;;;;;;5113496;28;20210;-82
2022/10/14 07:07:19;;;;;;;12.83;11.47;;;15.10;99.90;;;;;;5113377;28;20204;-82
2022/10/14 07:09:46;;;;;;;15.23;11.33;;;14.90;99.90;;;;;;5114631;28;20203;-82
2022/10/14 07:12:13;;;;;;;14.30;11.90;;;15.00;99.90;;;;;;5114718;28;20195;-82
2022/10/14 07:14:39;;;;;;;12.73;11.17;;;15.10;99.90;;;;;;5115382;28;20195;-82
2022/10/14 07:17:07;;;;;;;16.20;11.53;;;15.20;99.90;;;;;;5114952;28;20219;-81
2022/10/14 07:19:34;;;;;;;17.47;10.77;;;15.10;99.90;;;;;;5114976;28;20203;-82
2022/10/14 07:22:02;;;;;;;12.23;11.00;;;15.20;99.90;;;;;;5114732;28;20669;-81
2022/10/14 07:24:30;;;;;;;14.57;11.00;;;15.20;99.90;;;;;;5114752;28;20205;-81
2022/10/14 07:26:58;;;;;;;16.27;11.73;;;15.30;99.90;;;;;;5114536;28;20203;-81
2022/10/14 07:29:25;;;;;;;13.87;11.20;;;15.20;99.90;;;;;;5114788;28;20642;-81
2022/10/14 07:31:52;;;;;;;16.00;11.17;;;15.20;99.90;;;;;;5114657;28;20203;-81
2022/10/14 07:34:18;;;;;;;13.90;10.73;;;15.40;99.90;;;;;;5114673;28;20211;-81
2022/10/14 07:36:45;;;;;;;15.43;10.43;;;15.40;99.90;;;;;;5114239;28;20659;-82
2022/10/14 07:39:12;;;;;;;15.03;10.77;;;15.30;99.90;;;;;;5114886;28;20200;-83
2022/10/14 07:41:40;;;;;;;12.87;10.13;;;15.40;99.90;;;;;;5114270;28;20195;-82
2022/10/14 07:44:08;;;;;;;12.93;9.70;;;15.20;99.90;;;;;;5113462;28;20224;-81
2022/10/14 07:46:39;;;;;;;12.20;9.90;;;15.20;99.90;;;;;;5114481;28;20204;-82
2022/10/14 07:49:09;;;;;;;12.03;10.43;;;15.20;99.90;;;;;;5114314;28;20210;-81
2022/10/14 07:51:36;;;;;;;13.57;10.03;;;15.20;99.90;;;;;;5114569;28;20223;-81
2022/10/14 07:54:09;;;;;;;12.57;10.60;;;15.20;99.90;;;;;;5113979;28;20691;-81
2022/10/14 07:56:38;;;;;;;15.13;9.63;;;15.30;99.90;;;;;;5113998;28;20655;-81
2022/10/14 07:59:07;;;;;;;11.37;9.40;;;15.30;99.90;;;;;;5113985;28;20211;-80
2022/10/14 08:01:34;;;;;;;13.23;9.60;;;15.30;99.90;;;;;;5114632;28;20588;-81
2022/10/14 08:04:01;;;;;;;12.17;8.97;;;15.30;99.90;;;;;;5113711;28;20232;-81
2022/10/14 08:06:28;;;;;;;11.37;8.60;;;15.30;99.90;;;;;;5114334;28;20211;-81
2022/10/14 08:08:55;;;;;;;11.13;8.37;;;15.40;99.90;;;;;;5114122;28;20213;-81
2022/10/14 08:11:24;;;;;;;12.17;8.63;;;15.30;99.90;;;;;;5114144;28;20202;-82
2022/10/14 08:13:51;;;;;;;10.80;8.03;;;15.30;99.90;;;;;;5114138;28;20211;-81
2022/10/14 08:16:22;;;;;;;9.60;8.60;;;15.40;99.90;;;;;;5114313;28;20204;-82
2022/10/14 08:18:50;;;;;;;9.07;8.10;;;15.40;99.90;;;;;;5114522;28;20204;-79
2022/10/14 08:21:19;;;;;;;8.23;7.53;;;15.40;99.90;;;;;;5114326;28;20196;-78
2022/10/14 08:23:45;;;;;;;8.97;8.07;;;15.30;99.90;;;;;;5114000;28;20222;-80
2022/10/14 08:26:19;;;;;;;9.75;8.85;;;15.30;99.90;;;;;;5112530;28;20915;-79
2022/10/14 08:28:46;;;;;;;8.43;7.63;;;15.60;99.90;;;;;;5114285;28;20207;-79
2022/10/14 08:31:13;;;;;;;9.57;6.83;;;15.60;99.90;;;;;;5115608;28;20203;-79
2022/10/14 08:33:41;;;;;;;7.30;6.60;;;15.60;99.90;;;;;;5118315;28;20197;-79
2022/10/14 08:36:09;;;;;;;7.23;6.57;;;15.50;99.90;;;;;;5118302;28;20211;-80
2022/10/14 08:38:35;;;;;;;8.00;7.20;;;15.60;99.90;;;;;;5116387;28;20216;-80
2022/10/14 08:41:10;;;;;;;7.30;6.60;;;15.70;99.90;;;;;;5118128;28;20207;-80
2022/10/14 08:43:40;;;;;;;7.30;6.17;;;15.80;99.90;;;;;;5117530;28;20238;-82
2022/10/14 08:46:19;;;;;;;6.93;5.80;;;15.90;99.90;;;;;;5115517;28;20203;-81
2022/10/14 08:48:48;;;;;;;6.70;6.20;;;15.90;99.90;;;;;;5114293;28;20215;-82
2022/10/14 08:51:17;;;;;;;6.90;6.30;;;15.80;99.90;;;;;;5115969;28;20212;-81
2022/10/14 08:53:48;;;;;;;7.50;6.83;;;15.80;99.90;;;;;;5115431;28;20207;-81
2022/10/14 08:56:17;;;;;;;6.27;5.70;;;15.80;99.90;;;;;;5118452;28;20188;-81
2022/10/14 08:58:48;;;;;;;6.03;5.43;;;15.80;99.90;;;;;;5118122;28;20189;-82
2022/10/14 09:01:22;;;;;;;6.17;5.57;;;15.70;99.90;;;;;;5118131;28;20237;-83
2022/10/14 09:03:51;;;;;;;6.83;5.83;;;15.60;99.90;;;;;;5118533;27;20683;-85
2022/10/14 09:06:24;;;;;;;5.90;5.50;;;15.60;99.90;;;;;;5118510;28;20203;-83
2022/10/14 09:08:54;;;;;;;6.00;5.60;;;15.70;99.90;;;;;;5118000;28;20722;-82
2022/10/14 09:11:24;;;;;;;6.13;5.60;;;15.70;99.90;;;;;;5118392;28;20204;-83
2022/10/14 09:13:54;;;;;;;7.20;5.83;;;15.60;99.90;;;;;;5117835;28;20212;-82
2022/10/14 09:16:24;;;;;;;5.70;5.30;;;15.70;99.90;;;;;;5118489;28;20201;-83
2022/10/14 09:18:55;;;;;;;6.60;6.00;;;15.80;99.90;;;;;;5118043;28;20207;-82
2022/10/14 09:21:28;;;;;;;6.37;5.70;;;15.80;99.90;;;;;;5117905;28;20204;-83
2022/10/14 09:24:00;;;;;;;6.57;5.63;;;15.90;99.90;;;;;;5116324;28;20248;-83
2022/10/14 09:26:38;;;;;;;6.07;5.57;;;15.80;99.90;;;;;;5116977;27;20673;-83
2022/10/14 09:29:06;;;;;;;6.43;5.90;;;15.80;99.90;;;;;;5117213;28;20644;-82
2022/10/14 09:31:33;;;;;;;6.60;6.00;;;15.80;99.90;;;;;;5117312;28;20212;-83
2022/10/14 09:34:01;;;;;;;6.47;5.80;;;15.80;99.90;;;;;;5116905;27;20222;-82
2022/10/14 09:36:29;;;;;;;5.87;5.40;;;15.70;99.90;;;;;;5117013;28;20208;-83
2022/10/14 09:38:58;;;;;;;6.30;5.80;;;15.70;99.90;;;;;;5116643;28;20207;-82
2022/10/14 09:41:30;;;;;;;7.40;6.57;;;15.80;99.90;;;;;;5116951;28;20205;-82
2022/10/14 09:44:20;;;;;;;7.00;6.40;;;15.80;99.90;;;;;;5116795;28;20223;-83
2022/10/14 09:46:50;;;;;;;6.50;5.97;;;15.70;99.90;;;;;;5116682;28;20230;-83
2022/10/14 09:49:22;;;;;;;9.23;6.23;;;15.80;99.90;;;;;;5117262;28;20554;-84
2022/10/14 09:51:51;;;;;;;6.53;5.93;;;15.90;99.90;;;;;;5116634;28;20310;-83
2022/10/14 09:54:25;;;;;;;7.17;6.37;;;15.90;99.90;;;;;;5116611;28;20541;-82
2022/10/14 09:57:02;;;;;;;6.90;6.40;;;15.90;99.90;;;;;;5117095;28;20287;-85
2022/10/14 09:59:30;;;;;;;7.37;6.77;;;16.00;99.90;;;;;;5116445;28;20193;-83
2022/10/14 10:01:59;;;;;;;7.70;7.17;;;16.00;99.90;;;;;;5116497;28;20208;-82
2022/10/14 10:04:35;;;;;;;8.27;7.60;;;16.00;99.90;;;;;;5116052;28;20230;-82
2022/10/14 10:07:04;;;;;;;8.90;7.93;;;15.80;99.90;;;;;;5114386;28;20200;-83
2022/10/14 10:09:32;;;;;;;10.93;10.00;;;15.80;99.90;;;;;;5114743;28;20433;-84
2022/10/14 10:11:59;;;;;;;9.23;8.33;;;15.90;99.90;;;;;;5116152;28;20200;-84
2022/10/14 10:14:31;;;;;;;9.07;8.27;;;16.00;99.90;;;;;;5115749;28;20214;-84
2022/10/14 10:17:18;;;;;;;9.10;8.20;;;15.80;99.90;;;;;;5115925;28;20230;-83
2022/10/14 10:19:50;;;;;;;9.90;8.90;;;15.70;99.90;;;;;;5116237;27;20630;-83
2022/10/14 10:22:22;;;;;;;9.83;9.03;;;15.70;99.90;;;;;;5116153;28;20666;-83
2022/10/14 10:24:51;;;;;;;9.83;8.93;;;15.70;99.90;;;;;;5116294;28;20224;-82
2022/10/14 10:27:25;;;;;;;10.07;9.10;;;15.70;99.90;;;;;;5115449;28;20204;-83
2022/10/14 10:29:55;;;;;;;12.03;9.87;;;15.80;99.90;;;;;;5116119;28;20655;-83
2022/10/14 10:32:28;;;;;;;10.23;9.33;;;15.80;99.90;;;;;;5116264;28;20215;-83
2022/10/14 10:35:14;;;;;;;12.70;9.57;;;15.70;99.90;;;;;;5115405;28;20204;-83
2022/10/14 10:37:49;;;;;;;12.10;10.90;;;15.80;99.90;;;;;;5115761;28;20199;-83
2022/10/14 10:40:30;;;;;;;10.83;9.73;;;15.80;99.90;;;;;;5115796;28;20205;-83
2022/10/14 10:43:31;;;;;;;11.53;10.37;;;15.90;99.90;;;;;;5116097;28;20195;-83
2022/10/14 10:46:09;;;;;;;11.60;10.40;;;16.00;99.90;;;;;;5113126;27;20207;-82
2022/10/14 10:48:42;;;;;;;11.47;10.27;;;16.00;99.90;;;;;;5115702;28;20612;-83
2022/10/14 10:51:15;;;;;;;10.90;9.70;;;16.10;99.90;;;;;;5115425;28;20219;-83
2022/10/14 10:54:04;;;;;;;12.17;10.03;;;16.00;99.90;;;;;;5115421;28;20188;-82
2022/10/14 10:56:38;;;;;;;10.97;9.63;;;16.00;99.90;;;;;;5115292;28;20203;-83
2022/10/14 10:59:29;;;;;;;10.40;9.17;;;16.00;99.90;;;;;;5121237;27;20245;-84
2022/10/14 11:02:23;;;;;;;10.20;9.10;;;16.00;99.90;;;;;;5115416;27;20199;-83
2022/10/14 11:04:56;;;;;;;10.50;9.33;;;16.10;99.90;;;;;;5129486;27;20231;-81
2022/10/14 11:13:21;;;;;;;8.90;8.00;;;16.40;99.90;;;;;;5135435;27;20202;-83
2022/10/14 11:15:58;;;;;;;10.27;9.17;;;16.60;99.90;;;;;;5135185;27;20200;-82
2022/10/14 11:18:33;;;;;;;10.13;9.23;;;16.70;99.90;;;;;;5132622;27;20192;-81
2022/10/14 11:21:10;;;;;;;9.50;8.60;;;16.70;99.90;;;;;;5134447;27;20226;-82
2022/10/14 11:23:47;;;;;;;9.37;8.43;;;16.90;99.90;;;;;;5135216;27;20227;-81
2022/10/14 11:26:26;;;;;;;9.20;8.30;;;17.00;99.90;;;;;;5116863;27;20208;-78
2022/10/14 11:29:01;;;;;;;10.80;9.70;;;16.90;99.90;;;;;;5114179;28;20443;-81
2022/10/14 11:31:40;;;;;;;9.63;8.77;;;17.00;99.90;;;;;;5114899;28;20197;-81
2022/10/14 11:34:22;;;;;;;9.83;8.93;;;17.20;99.90;;;;;;5114238;28;20211;-81
2022/10/14 11:36:59;;;;;;;9.07;8.30;;;17.30;99.90;;;;;;5114188;28;20199;-79
2022/10/14 11:39:37;;;;;;;9.13;8.37;;;17.50;99.90;;;;;;5114409;28;20204;-81
2022/10/14 11:42:23;;;;;;;10.20;9.30;;;17.50;99.90;;;;;;5114527;28;20517;-81
2022/10/14 11:44:59;;;;;;;9.40;8.60;;;17.60;99.90;;;;;;5114567;27;20571;-80
2022/10/14 11:47:32;;;;;;;9.67;8.87;;;17.60;99.90;;;;;;5113750;28;20230;-81
2022/10/14 11:50:05;;;;;;;9.43;8.50;;;17.70;99.90;;;;;;5114267;28;20199;-80
2022/10/14 11:52:37;;;;;;;9.57;8.83;;;17.70;99.90;;;;;;5114185;28;20218;-83
2022/10/14 11:55:13;;;;;;;11.10;10.10;;;17.80;99.90;;;;;;5113557;28;20807;-81
2022/10/14 11:57:44;;;;;;;10.23;9.33;;;17.80;99.90;;;;;;5113792;28;20206;-81
2022/10/14 12:00:15;;;;;;;9.70;8.80;;;17.60;99.90;;;;;;5114134;28;20569;-77
2022/10/14 12:02:49;;;;;;;10.10;9.30;;;17.70;99.90;;;;;;5112572;28;20196;-77
2022/10/14 12:05:22;;;;;;;10.40;9.57;;;17.70;99.90;;;;;;5114428;28;20239;-76
2022/10/14 12:08:02;;;;;;;10.00;9.20;;;17.70;99.90;;;;;;5113923;28;20195;-77
2022/10/14 12:10:35;;;;;;;10.40;9.60;;;17.70;99.90;;;;;;5114168;28;20204;-76
2022/10/14 12:13:06;;;;;;;10.83;9.93;;;17.80;99.90;;;;;;5113964;28;20243;-77
2022/10/14 12:15:35;;;;;;;10.07;9.10;;;17.90;99.90;;;;;;5114254;28;20201;-76
2022/10/14 12:18:04;;;;;;;9.73;9.00;;;17.90;99.90;;;;;;5113822;28;20251;-78
2022/10/14 12:20:38;;;;;;;9.63;8.73;;;17.90;99.90;;;;;;5113910;28;20214;-76
2022/10/14 12:23:08;;;;;;;11.40;10.50;;;17.90;99.90;;;;;;5112784;28;20781;-80
2022/10/14 12:25:45;;;;;;;10.60;9.60;;;17.90;99.90;;;;;;5113680;28;20721;-76
2022/10/14 12:28:14;;;;;;;9.53;8.73;;;17.90;99.90;;;;;;5113520;28;20204;-76
2022/10/14 12:30:41;;;;;;;9.93;9.07;;;18.00;99.90;;;;;;5113403;28;20242;-77
2022/10/14 12:33:10;;;;;;;9.93;9.10;;;18.00;99.90;;;;;;5113678;28;20191;-77
2022/10/14 12:36:01;;;;;;;10.03;9.13;;;18.00;99.90;;;;;;5113465;28;20215;-76
2022/10/14 12:38:29;;;;;;;9.27;8.47;;;18.00;99.90;;;;;;5097788;28;20204;-76
2022/10/14 12:41:33;;;;;;;9.57;8.80;;;18.10;99.90;;;;;;5113779;28;20204;-77
2022/10/14 12:44:02;;;;;;;8.97;8.23;;;18.20;99.90;;;;;;5113779;28;20247;-78
2022/10/14 12:46:29;;;;;;;9.90;9.00;;;18.20;99.90;;;;;;5113286;28;20212;-80
2022/10/14 12:48:56;;;;;;;9.23;8.33;;;18.30;99.90;;;;;;5113273;28;20269;-80
2022/10/14 12:51:26;;;;;;;8.20;7.60;;;18.30;99.90;;;;;;5113998;28;20226;-78
2022/10/14 12:54:07;;;;;;;8.40;7.70;;;18.40;99.90;;;;;;5113571;28;20193;-81
2022/10/14 12:56:39;;;;;;;8.63;7.37;;;18.40;99.90;;;;;;5113623;28;20227;-78